createdAt,value
2024-03-02T00:00:00.219Z,4.84
2024-03-02T00:15:00.631Z,4.84
2024-03-02T00:30:00.611Z,4.84
2024-03-02T00:45:00.458Z,4.85
2024-03-02T01:00:00.251Z,4.85
2024-03-02T01:15:00.227Z,4.85
2024-03-02T01:30:00.313Z,4.85
2024-03-02T01:45:00.282Z,4.81
2024-03-02T02:00:00.234Z,4.81
2024-03-02T02:15:00.240Z,4.81
2024-03-02T02:30:00.241Z,4.81
2024-03-02T02:45:00.264Z,4.38
2024-03-02T03:00:00.527Z,4.38
2024-03-02T03:15:00.313Z,4.38
2024-03-02T03:30:00.302Z,4.38
2024-03-02T03:45:00.203Z,4.09
2024-03-02T04:00:00.319Z,4.09
2024-03-02T04:15:00.191Z,4.09
2024-03-02T04:30:00.299Z,4.09
2024-03-02T04:45:00.230Z,4.19
2024-03-02T05:00:00.327Z,4.19
2024-03-02T05:15:00.379Z,4.19
2024-03-02T05:30:00.434Z,4.01
2024-03-02T05:45:00.280Z,3.74
2024-03-02T06:00:00.307Z,3.74
2024-03-02T06:15:00.240Z,3.74
2024-03-02T06:30:00.311Z,3.74
2024-03-02T06:45:00.251Z,3.87
2024-03-02T07:00:00.434Z,3.87
2024-03-02T07:15:00.255Z,3.87
2024-03-02T07:30:00.238Z,3.87
2024-03-02T07:45:00.238Z,4.57
2024-03-02T08:00:00.227Z,4.57
2024-03-02T08:15:00.224Z,4.57
2024-03-02T08:30:00.269Z,4.57
2024-03-02T08:45:00.217Z,4.92
2024-03-02T09:00:00.251Z,4.92
2024-03-02T09:15:00.267Z,4.92
2024-03-02T09:30:00.357Z,4.92
2024-03-02T09:45:00.272Z,5.63
2024-03-02T10:00:00.311Z,5.63
2024-03-02T10:15:00.313Z,5.63
2024-03-02T10:30:00.303Z,5.63
2024-03-02T10:45:00.283Z,5.52
2024-03-02T11:00:00.256Z,5.52
2024-03-02T11:15:00.204Z,5.52
2024-03-02T11:30:00.402Z,5.52
2024-03-02T11:45:00.259Z,5.32
2024-03-02T12:00:00.231Z,5.32
2024-03-02T12:15:00.304Z,5.32
2024-03-02T12:30:00.360Z,5.32
2024-03-02T12:45:00.325Z,5.43
2024-03-02T13:00:00.310Z,5.43
2024-03-02T13:15:00.247Z,5.43
2024-03-02T13:30:00.387Z,5.43
2024-03-02T13:45:00.197Z,5.42
2024-03-02T14:00:00.253Z,5.42
2024-03-02T14:15:00.202Z,5.42
2024-03-02T14:30:00.261Z,5.42
2024-03-02T14:45:00.245Z,5.3
2024-03-02T15:00:00.580Z,5.3
2024-03-02T15:15:00.265Z,5.3
2024-03-02T15:30:00.386Z,5.3
2024-03-02T15:45:00.655Z,4.74
2024-03-02T16:00:00.279Z,4.74
2024-03-02T16:15:00.236Z,4.74
2024-03-02T16:30:00.349Z,4.74
2024-03-02T16:45:00.282Z,3.75
2024-03-02T17:00:00.363Z,3.75
2024-03-02T17:15:00.242Z,3.75
2024-03-02T17:30:00.339Z,3.75
2024-03-02T17:45:00.262Z,4
2024-03-02T18:00:00.306Z,4
2024-03-02T18:15:00.211Z,4
2024-03-02T18:30:00.475Z,4
2024-03-02T18:45:00.425Z,4.36
2024-03-02T19:00:00.266Z,4.36
2024-03-02T19:15:00.254Z,4.36
2024-03-02T19:30:00.234Z,4.36
2024-03-02T19:45:00.235Z,5.03
2024-03-02T20:00:00.253Z,5.03
2024-03-02T20:15:00.278Z,5.03
2024-03-02T20:30:00.393Z,5.03
2024-03-02T20:45:00.246Z,4.88
2024-03-02T21:00:00.335Z,4.88
2024-03-02T21:15:00.265Z,4.88
2024-03-02T21:30:00.357Z,4.88
2024-03-02T21:45:00.260Z,3.88
2024-03-02T23:00:00.285Z,3.39
2024-03-02T23:15:00.321Z,3.39
2024-03-02T23:30:00.289Z,4.05
2024-03-02T23:45:00.366Z,2.65
